createdAt,value
2023-02-07T00:00:17.449Z,4.32
2023-02-07T00:02:49.024Z,4.20
2023-02-07T00:05:16.222Z,5.20
2023-02-07T00:07:43.466Z,4.38
2023-02-07T00:10:10.296Z,4.72
2023-02-07T00:12:36.871Z,4.57
2023-02-07T00:15:04.587Z,5.07
2023-02-07T00:17:31.572Z,4.25
2023-02-07T00:19:58.260Z,5.78
2023-02-07T00:22:24.929Z,3.78
2023-02-07T00:24:51.697Z,4.53
2023-02-07T00:27:18.790Z,4.30
2023-02-07T00:29:45.472Z,3.80
2023-02-07T00:32:12.106Z,3.83
2023-02-07T00:34:38.735Z,4.82
2023-02-07T00:37:06.184Z,3.83
2023-02-07T00:39:33.386Z,3.90
2023-02-07T00:41:59.973Z,4.47
2023-02-07T00:44:26.606Z,4.10
2023-02-07T00:46:53.309Z,4.28
2023-02-07T00:49:19.967Z,4.35
2023-02-07T00:51:46.507Z,3.70
2023-02-07T00:54:13.098Z,3.55
2023-02-07T00:56:39.665Z,4.60
2023-02-07T00:59:06.369Z,4.28
2023-02-07T01:01:33.175Z,3.03
2023-02-07T01:03:59.994Z,4.40
2023-02-07T01:06:27.986Z,4.22
2023-02-07T01:08:59.675Z,3.65
2023-02-07T01:11:27.243Z,4.18
2023-02-07T01:13:54.000Z,4.93
2023-02-07T01:16:29.641Z,3.78
2023-02-07T01:18:56.765Z,3.65
2023-02-07T01:21:25.659Z,4.03
2023-02-07T01:23:52.516Z,3.55
2023-02-07T01:26:19.110Z,4.00
2023-02-07T01:28:45.712Z,3.83
2023-02-07T01:31:13.792Z,4.13
2023-02-07T01:33:40.382Z,3.75
2023-02-07T01:36:13.286Z,5.40
2023-02-07T01:38:41.084Z,3.25
2023-02-07T01:41:08.134Z,2.75
2023-02-07T01:43:35.059Z,4.55
2023-02-07T01:46:01.676Z,4.20
2023-02-07T01:48:37.589Z,4.10
2023-02-07T01:51:07.213Z,3.90
2023-02-07T01:53:36.372Z,3.08
2023-02-07T01:56:08.974Z,4.18
2023-02-07T01:58:37.801Z,3.08
2023-02-07T02:01:08.762Z,4.75
2023-02-07T02:03:39.522Z,3.28
2023-02-07T02:06:06.577Z,3.75
2023-02-07T02:08:33.128Z,3.08
2023-02-07T02:11:23.094Z,3.75
2023-02-07T02:14:10.500Z,3.70
2023-02-07T02:17:00.621Z,3.05
2023-02-07T02:19:55.228Z,4.53
2023-02-07T02:22:52.070Z,3.90
2023-02-07T02:25:38.361Z,2.95
2023-02-07T02:28:42.141Z,3.20
2023-02-07T02:31:40.921Z,4.20
2023-02-07T02:34:27.193Z,3.70
2023-02-07T02:37:15.740Z,4.55
2023-02-07T02:39:59.204Z,4.30
2023-02-07T02:42:44.216Z,4.63
2023-02-07T02:45:27.903Z,4.13
2023-02-07T02:47:55.714Z,4.47
2023-02-07T02:50:27.992Z,3.97
2023-02-07T02:52:55.120Z,5.07
2023-02-07T02:55:40.523Z,3.10
2023-02-07T02:58:13.111Z,3.60
2023-02-07T03:01:03.603Z,4.43
2023-02-07T03:03:36.258Z,4.32
2023-02-07T03:06:21.530Z,3.70
2023-02-07T03:09:06.133Z,4.15
2023-02-07T03:11:41.361Z,4.80
2023-02-07T03:14:31.196Z,3.95
2023-02-07T03:17:16.500Z,3.38
2023-02-07T03:20:12.334Z,3.40
2023-02-07T03:22:40.397Z,3.45
2023-02-07T03:25:10.086Z,4.68
2023-02-07T03:27:37.806Z,3.78
2023-02-07T03:30:09.771Z,3.50
2023-02-07T03:33:08.470Z,3.47
2023-02-07T03:35:49.532Z,3.65
2023-02-07T03:38:16.534Z,3.80
2023-02-07T03:40:47.647Z,3.92
2023-02-07T03:43:18.493Z,4.03
2023-02-07T03:45:45.103Z,4.28
2023-02-07T03:48:12.057Z,4.30
2023-02-07T03:50:38.843Z,3.47
2023-02-07T03:53:05.465Z,3.95
2023-02-07T03:55:32.656Z,3.15
2023-02-07T03:57:59.533Z,3.25
2023-02-07T04:00:26.488Z,3.58
2023-02-07T04:02:53.209Z,3.67
2023-02-07T04:05:20.035Z,3.35
2023-02-07T04:07:46.894Z,5.03
2023-02-07T04:10:13.502Z,3.60
2023-02-07T04:12:40.100Z,3.90
2023-02-07T04:15:07.798Z,3.10
2023-02-07T04:17:34.473Z,3.33
2023-02-07T04:20:01.805Z,2.72
2023-02-07T04:22:29.464Z,3.95
2023-02-07T04:24:56.156Z,2.88
2023-02-07T04:27:23.235Z,4.38
2023-02-07T04:29:50.305Z,3.35
2023-02-07T04:32:17.046Z,3.90
2023-02-07T04:34:43.972Z,3.72
2023-02-07T04:37:10.578Z,3.33
2023-02-07T04:39:37.182Z,2.35
2023-02-07T04:42:03.994Z,4.35
2023-02-07T04:44:31.048Z,3.80
2023-02-07T04:46:57.607Z,4.05
2023-02-07T04:49:24.229Z,4.70
2023-02-07T04:51:50.818Z,3.67
2023-02-07T04:54:17.361Z,3.13
2023-02-07T04:56:43.993Z,3.40
2023-02-07T04:59:10.575Z,3.15
2023-02-07T05:01:37.162Z,2.95
2023-02-07T05:04:03.819Z,3.58
2023-02-07T05:06:30.436Z,3.50
2023-02-07T05:08:57.309Z,4.15
2023-02-07T05:11:23.863Z,3.15
2023-02-07T05:13:50.669Z,3.25
2023-02-07T05:16:17.856Z,4.15
2023-02-07T05:18:44.695Z,2.95
2023-02-07T05:21:11.426Z,3.55
2023-02-07T05:23:38.038Z,3.08
2023-02-07T05:26:04.811Z,3.55
2023-02-07T05:28:31.413Z,3.30
2023-02-07T05:30:58.050Z,3.75
2023-02-07T05:33:24.730Z,2.60
2023-02-07T05:35:51.297Z,3.55
2023-02-07T05:38:19.996Z,3.53
2023-02-07T05:40:48.361Z,3.55
2023-02-07T05:43:15.347Z,3.40
2023-02-07T05:45:42.053Z,3.05
2023-02-07T05:48:08.946Z,3.30
2023-02-07T05:50:36.042Z,4.35
2023-02-07T05:53:03.506Z,5.15
2023-02-07T05:55:30.284Z,2.90
2023-02-07T05:57:58.716Z,3.80
2023-02-07T06:00:25.967Z,3.85
2023-02-07T06:02:52.588Z,2.95
2023-02-07T06:05:23.700Z,3.38
2023-02-07T06:07:53.410Z,4.25
2023-02-07T06:10:20.389Z,4.55
2023-02-07T06:12:47.116Z,4.07
2023-02-07T06:15:13.797Z,4.68
2023-02-07T06:17:40.463Z,3.33
2023-02-07T06:20:07.779Z,3.72
2023-02-07T06:22:34.379Z,3.55
2023-02-07T06:25:00.981Z,3.33
2023-02-07T06:27:27.527Z,4.00
2023-02-07T06:29:54.146Z,3.83
2023-02-07T06:32:21.098Z,4.25
2023-02-07T06:34:47.684Z,2.83
2023-02-07T06:37:14.645Z,5.05
2023-02-07T06:39:41.310Z,2.97
2023-02-07T06:42:07.908Z,3.35
2023-02-07T06:44:34.515Z,3.88
2023-02-07T06:47:01.107Z,4.18
2023-02-07T06:49:27.814Z,4.45
2023-02-07T06:51:54.434Z,2.85
2023-02-07T06:54:21.150Z,3.80
2023-02-07T06:56:49.426Z,3.50
2023-02-07T06:59:16.250Z,2.92
2023-02-07T07:01:42.857Z,4.05
2023-02-07T07:04:09.715Z,4.00
2023-02-07T07:06:36.444Z,4.13
2023-02-07T07:09:04.101Z,3.35
2023-02-07T07:11:30.679Z,3.50
2023-02-07T07:13:57.337Z,2.88
2023-02-07T07:16:24.284Z,5.05
2023-02-07T07:18:51.246Z,3.72
2023-02-07T07:21:18.063Z,2.40
2023-02-07T07:23:44.893Z,3.38
2023-02-07T07:26:11.614Z,3.33
2023-02-07T07:28:38.211Z,4.47
2023-02-07T07:31:07.430Z,4.45
2023-02-07T07:33:34.332Z,4.10
2023-02-07T07:36:09.771Z,4.25
2023-02-07T07:41:04.481Z,3.38
2023-02-07T07:43:31.208Z,3.00
2023-02-07T07:46:00.203Z,3.92
2023-02-07T07:48:27.495Z,4.72
2023-02-07T07:50:54.349Z,4.75
2023-02-07T07:53:21.828Z,3.65
2023-02-07T07:55:50.625Z,4.70
2023-02-07T07:58:17.635Z,4.85
2023-02-07T08:00:44.405Z,3.75
2023-02-07T08:03:12.740Z,4.25
2023-02-07T08:05:39.678Z,4.05
2023-02-07T08:08:06.747Z,4.28
2023-02-07T08:10:33.854Z,3.75
2023-02-07T08:13:00.812Z,5.15
2023-02-07T08:15:27.659Z,4.25
2023-02-07T08:17:54.541Z,3.95
2023-02-07T08:20:21.263Z,4.97
2023-02-07T08:22:47.960Z,4.20
2023-02-07T08:25:14.861Z,3.70
2023-02-07T08:27:41.729Z,3.33
2023-02-07T08:30:10.373Z,4.20
2023-02-07T08:32:37.025Z,4.65
2023-02-07T08:35:03.833Z,3.80
2023-02-07T08:37:32.155Z,4.22
2023-02-07T08:39:59.033Z,3.55
2023-02-07T08:42:25.719Z,3.55
2023-02-07T08:44:52.561Z,3.55
2023-02-07T08:47:19.711Z,4.07
2023-02-07T08:49:46.460Z,3.35
2023-02-07T08:52:13.268Z,3.10
2023-02-07T08:54:40.179Z,3.85
2023-02-07T08:57:06.987Z,5.75
2023-02-07T08:59:33.789Z,4.45
2023-02-07T09:02:00.497Z,5.18
2023-02-07T09:04:27.190Z,3.20
2023-02-07T09:06:54.008Z,4.57
2023-02-07T09:09:20.980Z,3.70
2023-02-07T09:11:47.762Z,4.63
2023-02-07T09:14:14.853Z,4.40
2023-02-07T09:16:41.609Z,4.30
2023-02-07T09:19:08.609Z,5.13
2023-02-07T09:21:37.332Z,5.32
2023-02-07T09:24:04.471Z,4.95
2023-02-07T09:26:33.483Z,5.22
2023-02-07T09:29:00.371Z,5.05
2023-02-07T09:31:27.425Z,4.97
2023-02-07T09:33:54.450Z,4.22
2023-02-07T09:36:27.476Z,4.93
2023-02-07T09:38:54.944Z,5.78
2023-02-07T09:41:56.285Z,4.57
2023-02-07T09:44:49.596Z,5.38
2023-02-07T09:47:23.116Z,5.30
2023-02-07T09:50:03.747Z,5.30
2023-02-07T09:52:41.054Z,6.13
2023-02-07T09:55:23.102Z,5.70
2023-02-07T09:58:20.346Z,6.15
2023-02-07T10:00:58.694Z,5.57
2023-02-07T10:03:25.694Z,5.20
2023-02-07T10:06:12.796Z,6.05
2023-02-07T10:08:47.066Z,5.65
2023-02-07T10:11:27.691Z,5.68
2023-02-07T10:14:03.576Z,6.47
2023-02-07T10:17:14.047Z,4.10
2023-02-07T10:20:05.834Z,6.05
2023-02-07T10:22:50.968Z,6.65
2023-02-07T10:25:37.979Z,6.30
2023-02-07T10:28:14.474Z,5.40
2023-02-07T10:30:54.431Z,6.18
2023-02-07T10:33:26.219Z,5.28
2023-02-07T10:35:54.648Z,5.50
2023-02-07T10:38:40.032Z,5.45
2023-02-07T10:41:13.991Z,5.57
2023-02-07T10:43:44.574Z,6.18
2023-02-07T10:46:16.341Z,5.75
2023-02-07T10:48:42.920Z,5.95
2023-02-07T10:51:27.728Z,4.80
2023-02-07T10:54:20.674Z,6.20
2023-02-07T10:56:54.655Z,5.22
2023-02-07T10:59:34.954Z,6.38
2023-02-07T11:02:02.716Z,5.57
2023-02-07T11:04:38.660Z,6.00
2023-02-07T11:07:10.395Z,6.25
2023-02-07T11:09:41.176Z,6.68
2023-02-07T11:12:34.292Z,5.68
2023-02-07T11:15:02.930Z,6.20
2023-02-07T11:17:29.648Z,6.28
2023-02-07T11:19:56.922Z,7.20
2023-02-07T11:22:25.110Z,5.88
2023-02-07T11:24:59.219Z,5.72
2023-02-07T11:27:26.193Z,6.22
2023-02-07T11:30:00.004Z,6.10
2023-02-07T11:32:28.117Z,5.57
2023-02-07T11:34:58.551Z,6.25
2023-02-07T11:37:35.313Z,5.97
2023-02-07T11:40:27.078Z,4.55
2023-02-07T11:43:06.736Z,5.95
2023-02-07T11:45:36.450Z,5.72
2023-02-07T11:48:04.127Z,6.97
2023-02-07T11:50:39.481Z,5.70
2023-02-07T11:53:07.548Z,6.53
2023-02-07T11:55:36.108Z,7.72
2023-02-07T11:58:09.997Z,6.22
2023-02-07T12:00:38.243Z,6.82
2023-02-07T12:03:25.032Z,6.82
2023-02-07T12:05:55.537Z,6.97
2023-02-07T12:08:24.960Z,6.40
2023-02-07T12:10:56.629Z,6.60
2023-02-07T12:13:52.546Z,6.60
2023-02-07T12:16:26.860Z,6.55
2023-02-07T12:19:04.880Z,6.88
2023-02-07T12:21:52.363Z,6.88
2023-02-07T12:24:43.541Z,6.45
2023-02-07T12:27:16.739Z,5.47
2023-02-07T12:30:05.139Z,7.72
2023-02-07T12:32:46.513Z,7.20
2023-02-07T12:35:26.379Z,6.93
2023-02-07T12:38:11.490Z,6.43
2023-02-07T12:40:55.262Z,7.10
2023-02-07T12:43:27.284Z,7.55
2023-02-07T12:46:01.799Z,6.63
2023-02-07T12:48:36.481Z,7.15
2023-02-07T12:51:34.417Z,7.43
2023-02-07T12:54:12.017Z,7.47
2023-02-07T12:56:57.211Z,7.43
2023-02-07T12:59:58.012Z,7.95
2023-02-07T13:02:56.669Z,8.85
2023-02-07T13:05:35.718Z,7.47
2023-02-07T13:08:18.554Z,7.82
2023-02-07T13:10:54.335Z,8.05
2023-02-07T13:13:45.587Z,7.50
2023-02-07T13:16:39.187Z,7.88
2023-02-07T13:19:16.883Z,8.32
2023-02-07T13:22:06.968Z,6.95
2023-02-07T13:24:35.801Z,7.68
2023-02-07T13:27:05.935Z,7.88
2023-02-07T13:29:35.243Z,8.07
2023-02-07T13:32:05.967Z,8.30
2023-02-07T13:34:39.630Z,7.80
2023-02-07T13:37:16.374Z,8.88
2023-02-07T13:40:28.685Z,7.70
2023-02-07T13:43:08.710Z,7.85
2023-02-07T13:45:46.512Z,7.70
2023-02-07T13:48:33.899Z,7.68
2023-02-07T13:51:07.988Z,7.18
2023-02-07T13:53:46.425Z,8.43
2023-02-07T13:56:33.955Z,6.90
2023-02-07T13:59:19.956Z,8.30
2023-02-07T14:01:54.237Z,8.60
2023-02-07T14:04:22.700Z,8.63
2023-02-07T14:07:02.850Z,7.38
2023-02-07T14:09:35.897Z,8.35
2023-02-07T14:12:13.151Z,8.05
2023-02-07T14:14:43.307Z,8.07
2023-02-07T14:18:01.361Z,7.75
2023-02-07T14:20:37.629Z,8.38
2023-02-07T14:23:19.943Z,7.28
2023-02-07T14:25:47.107Z,9.50
2023-02-07T14:28:33.193Z,7.32
2023-02-07T14:31:10.586Z,8.30
2023-02-07T14:33:39.046Z,8.13
2023-02-07T14:36:14.681Z,7.38
2023-02-07T14:38:46.023Z,7.75
2023-02-07T14:41:15.202Z,7.88
2023-02-07T14:44:07.622Z,7.20
2023-02-07T14:46:47.962Z,8.50
2023-02-07T14:49:28.860Z,8.00
2023-02-07T14:52:07.807Z,8.57
2023-02-07T14:54:46.673Z,7.47
2023-02-07T14:57:44.819Z,8.25
2023-02-07T15:00:14.506Z,8.00
2023-02-07T15:02:51.309Z,7.88
2023-02-07T15:05:20.073Z,7.85
2023-02-07T15:07:47.301Z,8.07
2023-02-07T15:10:25.804Z,7.95
2023-02-07T15:12:56.150Z,7.25
2023-02-07T15:15:42.489Z,8.20
2023-02-07T15:18:12.766Z,8.73
2023-02-07T15:20:40.568Z,8.50
2023-02-07T15:23:13.742Z,7.60
2023-02-07T15:25:42.986Z,7.75
2023-02-07T15:28:28.872Z,8.07
2023-02-07T15:31:04.805Z,7.55
2023-02-07T15:33:48.277Z,8.38
2023-02-07T15:36:37.593Z,7.55
2023-02-07T15:39:07.088Z,7.30
2023-02-07T15:41:34.275Z,8.73
2023-02-07T15:44:04.222Z,8.05
2023-02-07T15:47:06.200Z,8.05
2023-02-07T15:49:37.298Z,8.88
2023-02-07T15:52:28.289Z,8.27
2023-02-07T15:54:56.742Z,8.98
2023-02-07T15:57:36.155Z,9.18
2023-02-07T16:00:08.024Z,8.63
2023-02-07T16:02:37.491Z,7.82
2023-02-07T16:05:27.173Z,9.75
2023-02-07T16:07:54.391Z,8.95
2023-02-07T16:10:24.031Z,8.27
2023-02-07T16:13:19.033Z,8.00
2023-02-07T16:15:57.661Z,8.05
2023-02-07T16:18:48.065Z,8.25
2023-02-07T16:21:27.701Z,7.95
2023-02-07T16:24:09.463Z,7.07
2023-02-07T16:26:36.826Z,8.07
2023-02-07T16:29:07.371Z,7.50
2023-02-07T16:31:34.884Z,7.57
2023-02-07T16:34:01.516Z,8.48
2023-02-07T16:36:28.868Z,7.85
2023-02-07T16:38:55.750Z,7.32
2023-02-07T16:41:31.114Z,7.88
2023-02-07T16:43:59.317Z,8.05
2023-02-07T16:46:26.403Z,8.15
2023-02-07T16:48:55.126Z,8.55
2023-02-07T16:51:21.727Z,8.88
2023-02-07T16:53:48.586Z,8.60
2023-02-07T16:56:23.323Z,9.90
2023-02-07T16:58:49.872Z,9.57
2023-02-07T17:01:21.626Z,9.68
2023-02-07T17:03:48.227Z,9.32
2023-02-07T17:06:16.699Z,10.20
2023-02-07T17:08:43.741Z,9.00
2023-02-07T17:11:15.525Z,9.75
2023-02-07T17:13:43.172Z,9.32
2023-02-07T17:16:16.088Z,10.48
2023-02-07T17:18:42.754Z,10.38
2023-02-07T17:21:11.467Z,9.27
2023-02-07T17:23:39.447Z,10.77
2023-02-07T17:26:10.629Z,8.57
2023-02-07T17:28:37.444Z,9.38
2023-02-07T17:31:04.193Z,10.27
2023-02-07T17:33:31.009Z,10.15
2023-02-07T17:35:57.613Z,8.88
2023-02-07T17:38:24.203Z,9.93
2023-02-07T17:40:53.414Z,9.25
2023-02-07T17:43:20.001Z,8.65
2023-02-07T17:45:46.587Z,9.60
2023-02-07T17:48:13.398Z,8.38
2023-02-07T17:50:41.263Z,8.98
2023-02-07T17:53:09.525Z,10.40
2023-02-07T17:55:38.800Z,8.70
2023-02-07T17:58:05.514Z,9.75
2023-02-07T18:00:36.555Z,9.23
2023-02-07T18:03:04.634Z,9.35
2023-02-07T18:05:32.143Z,9.48
2023-02-07T18:07:59.166Z,8.95
2023-02-07T18:10:31.866Z,9.13
2023-02-07T18:12:59.268Z,7.20
2023-02-07T18:15:30.274Z,8.63
2023-02-07T18:17:57.561Z,7.95
2023-02-07T18:20:34.259Z,9.35
2023-02-07T18:23:03.120Z,7.88
2023-02-07T18:25:30.214Z,9.05
2023-02-07T18:28:00.638Z,10.40
2023-02-07T18:30:28.361Z,10.05
2023-02-07T18:32:58.092Z,9.82
2023-02-07T18:35:24.728Z,8.68
2023-02-07T18:37:54.497Z,9.20
2023-02-07T18:40:21.514Z,8.63
2023-02-07T18:42:48.159Z,8.32
2023-02-07T18:45:14.930Z,9.90
2023-02-07T18:47:43.315Z,10.75
2023-02-07T18:50:11.821Z,10.98
2023-02-07T18:52:39.084Z,9.02
2023-02-07T18:55:06.015Z,9.95
2023-02-07T18:57:32.542Z,10.82
2023-02-07T18:59:59.194Z,10.38
2023-02-07T19:02:25.890Z,10.85
2023-02-07T19:04:55.199Z,10.40
2023-02-07T19:07:21.730Z,8.15
2023-02-07T19:09:48.334Z,8.90
2023-02-07T19:12:15.719Z,8.30
2023-02-07T19:14:42.369Z,9.52
2023-02-07T19:17:09.230Z,10.88
2023-02-07T19:19:36.147Z,9.50
2023-02-07T19:22:03.111Z,10.05
2023-02-07T19:24:29.944Z,8.82
2023-02-07T19:26:58.341Z,10.32
2023-02-07T19:29:30.554Z,10.80
2023-02-07T19:32:06.043Z,9.85
2023-02-07T19:34:33.194Z,8.88
2023-02-07T19:37:00.179Z,8.70
2023-02-07T19:39:27.149Z,9.05
2023-02-07T19:41:54.051Z,9.65
2023-02-07T19:44:22.975Z,10.57
2023-02-07T19:46:49.628Z,7.95
2023-02-07T19:49:16.582Z,8.93
2023-02-07T19:51:43.201Z,7.35
2023-02-07T19:54:10.158Z,9.77
2023-02-07T19:56:37.596Z,8.77
2023-02-07T19:59:06.030Z,8.02
2023-02-07T20:01:34.824Z,7.57
2023-02-07T20:04:01.786Z,8.65
2023-02-07T20:06:33.290Z,9.32
2023-02-07T20:09:03.014Z,10.23
2023-02-07T20:11:30.148Z,9.88
2023-02-07T20:14:02.615Z,8.18
2023-02-07T20:16:32.347Z,8.88
2023-02-07T20:18:59.087Z,10.07
2023-02-07T20:21:27.820Z,8.98
2023-02-07T20:23:55.831Z,8.80
2023-02-07T20:26:24.266Z,9.35
2023-02-07T20:28:51.010Z,7.90
2023-02-07T20:31:24.255Z,6.90
2023-02-07T20:33:55.956Z,8.02
2023-02-07T20:36:22.645Z,9.32
2023-02-07T20:38:49.309Z,10.07
2023-02-07T20:41:35.938Z,9.57
2023-02-07T20:44:05.510Z,8.30
2023-02-07T20:46:37.059Z,9.98
2023-02-07T20:49:07.213Z,10.45
2023-02-07T20:51:33.942Z,8.50
2023-02-07T20:54:02.918Z,8.35
2023-02-07T20:56:32.806Z,9.52
2023-02-07T20:59:00.872Z,7.68
2023-02-07T21:01:30.069Z,8.73
2023-02-07T21:03:59.097Z,8.10
2023-02-07T21:06:26.886Z,7.68
2023-02-07T21:09:00.682Z,7.93
2023-02-07T21:11:29.735Z,7.15
2023-02-07T21:13:56.676Z,7.85
2023-02-07T21:16:23.531Z,8.18
2023-02-07T21:18:50.627Z,7.13
2023-02-07T21:21:18.215Z,9.10
2023-02-07T21:23:45.186Z,7.85
2023-02-07T21:26:14.049Z,8.80
2023-02-07T21:28:41.078Z,7.63
2023-02-07T21:31:15.638Z,8.93
2023-02-07T21:33:42.241Z,7.18
2023-02-07T21:36:14.545Z,8.15
2023-02-07T21:38:44.930Z,7.57
2023-02-07T21:41:12.862Z,6.97
2023-02-07T21:43:42.540Z,7.63
2023-02-07T21:46:17.949Z,6.32
2023-02-07T21:48:50.633Z,8.10
2023-02-07T21:51:19.825Z,10.23
2023-02-07T21:53:48.417Z,7.65
2023-02-07T21:56:17.596Z,9.07
2023-02-07T21:58:44.656Z,8.25
2023-02-07T22:01:18.257Z,8.65
2023-02-07T22:03:47.023Z,7.07
2023-02-07T22:06:15.436Z,8.13
2023-02-07T22:08:47.386Z,8.55
2023-02-07T22:11:14.315Z,7.53
2023-02-07T22:13:42.674Z,7.18
2023-02-07T22:16:10.687Z,6.82
2023-02-07T22:18:37.781Z,6.72
2023-02-07T22:21:07.652Z,6.65
2023-02-07T22:23:34.338Z,7.15
2023-02-07T22:26:01.083Z,8.05
2023-02-07T22:28:28.230Z,8.43
2023-02-07T22:30:55.002Z,6.40
2023-02-07T22:33:21.756Z,6.55
2023-02-07T22:35:48.464Z,6.47
2023-02-07T22:38:15.051Z,6.95
2023-02-07T22:40:42.790Z,6.75
2023-02-07T22:43:15.270Z,7.80
2023-02-07T22:45:45.887Z,8.57
2023-02-07T22:48:14.812Z,9.90
2023-02-07T22:50:42.992Z,7.85
2023-02-07T22:53:11.508Z,9.57
2023-02-07T22:55:39.906Z,8.00
2023-02-07T22:58:07.060Z,6.63
2023-02-07T23:00:34.032Z,7.72
2023-02-07T23:03:01.271Z,8.32
2023-02-07T23:05:27.914Z,6.80
2023-02-07T23:07:54.587Z,7.47
2023-02-07T23:10:21.292Z,7.07
2023-02-07T23:12:48.342Z,6.70
2023-02-07T23:15:14.916Z,7.05
2023-02-07T23:17:41.959Z,5.95
2023-02-07T23:20:08.930Z,6.95
2023-02-07T23:22:38.769Z,7.30
2023-02-07T23:25:06.903Z,6.93
2023-02-07T23:27:33.704Z,6.38
2023-02-07T23:30:00.317Z,7.70
2023-02-07T23:32:27.193Z,7.05
2023-02-07T23:34:53.815Z,7.45
2023-02-07T23:37:22.250Z,7.55
2023-02-07T23:39:48.860Z,6.57
2023-02-07T23:42:15.423Z,6.13
2023-02-07T23:44:42.017Z,6.28
2023-02-07T23:47:08.646Z,6.70
2023-02-07T23:49:35.313Z,6.32
2023-02-07T23:52:01.883Z,6.85
2023-02-07T23:54:28.483Z,8.43
2023-02-07T23:56:55.065Z,5.53
2023-02-07T23:59:21.615Z,6.72
